createdAt,value
2019-05-21T00:01:44.695Z,11.80
2019-05-21T00:04:27.828Z,11.70
2019-05-21T00:06:48.430Z,11.70
2019-05-21T00:09:19.118Z,11.70
2019-05-21T00:11:49.784Z,11.80
2019-05-21T00:14:20.385Z,11.70
2019-05-21T00:16:51.013Z,11.70
2019-05-21T00:19:21.705Z,11.70
2019-05-21T00:21:52.271Z,11.70
2019-05-21T00:24:22.911Z,11.60
2019-05-21T00:26:53.530Z,11.60
2019-05-21T00:30:17.860Z,11.60
2019-05-21T00:33:41.998Z,11.60
2019-05-21T00:37:07.964Z,11.70
2019-05-21T00:40:32.397Z,11.60
2019-05-21T00:43:03.087Z,11.50
2019-05-21T00:45:33.823Z,11.50
2019-05-21T00:48:05.876Z,11.50
2019-05-21T00:50:36.691Z,11.40
2019-05-21T00:53:07.728Z,11.40
2019-05-21T00:55:38.693Z,11.40
2019-05-21T00:58:09.401Z,11.40
2019-05-21T01:00:40.247Z,11.40
2019-05-21T01:03:10.889Z,11.40
2019-05-21T01:05:41.697Z,11.40
2019-05-21T01:08:12.391Z,11.40
2019-05-21T01:10:43.034Z,11.40
2019-05-21T01:13:13.674Z,11.40
2019-05-21T01:15:44.251Z,11.40
2019-05-21T01:18:14.962Z,11.50
2019-05-21T01:20:45.669Z,11.40
2019-05-21T01:23:16.379Z,11.40
2019-05-21T01:25:46.967Z,11.40
2019-05-21T01:28:17.620Z,11.30
2019-05-21T01:30:48.324Z,11.30
2019-05-21T01:33:18.943Z,11.30
2019-05-21T01:35:49.578Z,11.40
2019-05-21T01:38:20.308Z,11.30
2019-05-21T01:40:51.016Z,11.30
2019-05-21T01:43:21.741Z,11.20
2019-05-21T01:45:52.370Z,11.20
2019-05-21T01:48:23.034Z,11.10
2019-05-21T01:50:53.685Z,11.10
2019-05-21T01:53:24.422Z,11.10
2019-05-21T01:55:55.005Z,11.10
2019-05-21T01:58:25.634Z,11.10
2019-05-21T02:00:56.398Z,11.00
2019-05-21T02:03:27.094Z,11.10
2019-05-21T02:05:57.861Z,11.00
2019-05-21T02:08:28.616Z,10.90
2019-05-21T02:10:59.341Z,10.90
2019-05-21T02:13:30.266Z,10.90
2019-05-21T02:16:01.775Z,10.80
2019-05-21T02:18:32.531Z,10.90
2019-05-21T02:21:03.412Z,10.90
2019-05-21T02:23:34.022Z,10.90
2019-05-21T02:26:04.786Z,10.90
2019-05-21T02:28:35.419Z,10.80
2019-05-21T02:31:06.394Z,10.70
2019-05-21T02:33:37.092Z,10.80
2019-05-21T02:36:07.780Z,10.80
2019-05-21T02:38:38.421Z,10.80
2019-05-21T02:41:09.025Z,10.90
2019-05-21T02:43:39.759Z,10.90
2019-05-21T02:46:11.266Z,10.90
2019-05-21T02:48:41.884Z,11.00
2019-05-21T02:51:12.828Z,11.00
2019-05-21T02:53:43.553Z,10.90
2019-05-21T02:56:14.343Z,10.90
2019-05-21T02:58:44.993Z,10.80
2019-05-21T03:01:32.696Z,10.70
2019-05-21T03:04:03.385Z,10.70
2019-05-21T03:06:34.143Z,10.80
2019-05-21T03:09:06.303Z,10.80
2019-05-21T03:11:37.347Z,10.80
2019-05-21T03:14:07.973Z,10.90
2019-05-21T03:16:38.603Z,10.90
2019-05-21T03:19:09.282Z,10.90
2019-05-21T03:21:41.632Z,10.80
2019-05-21T03:24:12.374Z,10.80
2019-05-21T03:26:42.988Z,10.80
2019-05-21T03:29:13.698Z,10.80
2019-05-21T03:31:44.333Z,10.80
2019-05-21T03:34:14.972Z,10.80
2019-05-21T03:36:46.111Z,10.90
2019-05-21T03:39:19.507Z,10.80
2019-05-21T03:41:49.471Z,10.90
2019-05-21T03:44:20.155Z,10.80
2019-05-21T03:46:50.793Z,10.70
2019-05-21T03:49:21.438Z,10.60
2019-05-21T03:51:52.087Z,10.70
2019-05-21T03:54:22.831Z,10.70
2019-05-21T03:56:53.731Z,10.70
2019-05-21T03:59:24.381Z,10.70
2019-05-21T04:01:55.241Z,10.70
2019-05-21T04:04:25.934Z,10.70
2019-05-21T04:06:56.659Z,10.60
2019-05-21T04:09:27.431Z,10.60
2019-05-21T04:11:58.059Z,10.60
2019-05-21T04:14:34.521Z,10.60
2019-05-21T04:17:14.910Z,10.60
2019-05-21T04:19:45.973Z,10.60
2019-05-21T04:22:19.565Z,10.60
2019-05-21T04:24:50.206Z,10.60
2019-05-21T04:27:20.792Z,10.60
2019-05-21T04:29:51.534Z,10.60
2019-05-21T04:32:22.313Z,10.60
2019-05-21T04:34:52.895Z,10.60
2019-05-21T04:37:23.570Z,10.70
2019-05-21T04:39:54.346Z,10.60
2019-05-21T04:42:25.316Z,10.70
2019-05-21T04:44:55.956Z,10.60
2019-05-21T04:47:26.582Z,10.60
2019-05-21T04:49:57.234Z,10.60
2019-05-21T04:52:27.845Z,10.60
2019-05-21T04:54:58.490Z,10.60
2019-05-21T04:57:29.195Z,10.60
2019-05-21T05:00:00.140Z,10.60
2019-05-21T05:02:30.820Z,10.60
2019-05-21T05:05:01.545Z,10.60
2019-05-21T05:07:32.182Z,10.60
2019-05-21T05:10:03.016Z,10.60
2019-05-21T05:12:33.687Z,10.70
2019-05-21T05:15:04.981Z,10.70
2019-05-21T05:17:35.742Z,10.70
2019-05-21T05:20:18.397Z,10.70
2019-05-21T05:22:49.051Z,10.70
2019-05-21T05:25:19.752Z,10.70
2019-05-21T05:27:50.383Z,10.80
2019-05-21T05:30:21.038Z,10.80
2019-05-21T05:32:51.780Z,10.80
2019-05-21T05:35:22.410Z,10.80
2019-05-21T05:37:53.107Z,10.70
2019-05-21T05:40:23.911Z,10.80
2019-05-21T05:42:54.500Z,10.80
2019-05-21T05:45:25.655Z,10.70
2019-05-21T05:47:56.289Z,10.70
2019-05-21T05:50:30.050Z,10.70
2019-05-21T05:53:00.801Z,10.70
2019-05-21T05:55:32.221Z,10.70
2019-05-21T05:58:03.389Z,10.70
2019-05-21T06:00:34.022Z,10.70
2019-05-21T06:03:04.685Z,10.80
2019-05-21T06:05:35.464Z,10.70
2019-05-21T06:08:06.188Z,10.70
2019-05-21T06:10:39.963Z,10.70
2019-05-21T06:13:09.212Z,10.70
2019-05-21T06:15:39.783Z,10.70
2019-05-21T06:18:10.396Z,10.70
2019-05-21T06:20:41.100Z,10.80
2019-05-21T06:23:12.210Z,10.80
2019-05-21T06:25:42.675Z,10.90
2019-05-21T06:28:13.208Z,10.90
2019-05-21T06:30:43.680Z,10.90
2019-05-21T06:33:14.248Z,10.90
2019-05-21T06:35:44.772Z,11.00
2019-05-21T06:38:17.968Z,10.90
2019-05-21T06:40:47.518Z,10.90
2019-05-21T06:43:18.098Z,10.80
2019-05-21T06:45:48.828Z,10.80
2019-05-21T06:48:19.301Z,10.80
2019-05-21T06:50:50.013Z,10.90
2019-05-21T06:53:20.776Z,10.90
2019-05-21T06:55:51.263Z,10.90
2019-05-21T06:58:22.123Z,10.90
2019-05-21T07:00:52.562Z,10.90
2019-05-21T07:03:23.285Z,11.00
2019-05-21T07:05:58.660Z,11.00
2019-05-21T07:08:34.632Z,11.00
2019-05-21T07:10:59.045Z,11.00
2019-05-21T07:13:31.133Z,11.00
2019-05-21T07:16:01.798Z,11.00
2019-05-21T07:18:32.369Z,11.00
2019-05-21T07:21:02.983Z,10.90
2019-05-21T07:23:33.486Z,11.00
2019-05-21T07:26:04.338Z,10.90
2019-05-21T07:28:34.841Z,11.00
2019-05-21T07:31:05.291Z,11.00
2019-05-21T07:33:35.778Z,11.10
2019-05-21T07:36:06.329Z,11.10
2019-05-21T07:38:51.973Z,11.10
2019-05-21T07:41:09.177Z,11.20
2019-05-21T07:43:39.846Z,11.20
2019-05-21T07:46:10.535Z,11.20
2019-05-21T07:48:41.183Z,11.30
2019-05-21T07:51:11.663Z,11.40
2019-05-21T07:53:42.119Z,11.40
2019-05-21T07:56:12.664Z,11.40
2019-05-21T07:58:43.087Z,11.50
2019-05-21T08:01:13.894Z,11.40
2019-05-21T08:03:44.628Z,11.50
2019-05-21T08:06:15.331Z,11.60
2019-05-21T08:08:45.731Z,11.60
2019-05-21T08:11:16.263Z,11.60
2019-05-21T08:13:46.670Z,11.60
2019-05-21T08:16:17.121Z,11.60
2019-05-21T08:18:47.846Z,11.60
2019-05-21T08:21:18.422Z,11.60
2019-05-21T08:23:48.933Z,11.60
2019-05-21T08:26:19.606Z,11.60
2019-05-21T08:28:50.051Z,11.70
2019-05-21T08:31:20.508Z,11.70
2019-05-21T08:33:50.987Z,11.70
2019-05-21T08:36:21.444Z,11.70
2019-05-21T08:38:51.899Z,11.90
2019-05-21T08:41:22.545Z,11.90
2019-05-21T08:43:57.802Z,12.00
2019-05-21T08:46:36.701Z,12.00
2019-05-21T08:49:07.301Z,12.10
2019-05-21T08:51:37.857Z,12.20
2019-05-21T08:54:08.392Z,12.30
2019-05-21T08:56:40.898Z,12.50
2019-05-21T08:59:11.445Z,12.70
2019-05-21T09:01:42.017Z,12.70
2019-05-21T09:04:12.502Z,12.80
2019-05-21T09:06:42.986Z,12.80
2019-05-21T09:09:13.611Z,12.90
2019-05-21T09:11:44.255Z,12.90
2019-05-21T09:14:17.468Z,13.00
2019-05-21T09:16:51.909Z,12.90
2019-05-21T09:19:22.468Z,12.90
2019-05-21T09:21:52.885Z,13.00
2019-05-21T09:24:23.333Z,13.10
2019-05-21T09:26:53.842Z,13.00
2019-05-21T09:29:24.486Z,13.10
2019-05-21T09:31:54.928Z,13.30
2019-05-21T09:34:25.730Z,13.30
2019-05-21T09:36:56.330Z,13.40
2019-05-21T09:39:26.861Z,13.30
2019-05-21T09:41:57.372Z,13.30
2019-05-21T09:44:27.941Z,13.30
2019-05-21T09:46:58.469Z,13.40
2019-05-21T09:49:28.906Z,13.50
2019-05-21T09:51:59.374Z,13.60
2019-05-21T09:54:30.000Z,13.60
2019-05-21T09:57:03.574Z,13.60
2019-05-21T09:59:48.314Z,13.60
2019-05-21T10:02:21.702Z,13.60
2019-05-21T10:04:52.306Z,13.70
2019-05-21T10:07:37.944Z,13.70
2019-05-21T10:09:55.008Z,13.60
2019-05-21T10:12:25.597Z,13.60
2019-05-21T10:14:56.629Z,13.60
2019-05-21T10:17:27.075Z,13.50
2019-05-21T10:19:58.935Z,13.50
2019-05-21T10:22:29.741Z,13.50
2019-05-21T10:25:00.545Z,13.40
2019-05-21T10:27:31.017Z,13.40
2019-05-21T10:30:01.658Z,13.40
2019-05-21T10:32:32.357Z,13.50
2019-05-21T10:35:03.894Z,13.60
2019-05-21T10:37:34.862Z,13.70
2019-05-21T10:40:05.727Z,13.70
2019-05-21T10:42:36.212Z,13.70
2019-05-21T10:45:07.747Z,13.80
2019-05-21T10:47:38.244Z,13.80
2019-05-21T10:50:09.390Z,14.00
2019-05-21T10:52:39.915Z,14.20
2019-05-21T10:55:15.998Z,14.10
2019-05-21T10:57:45.409Z,14.00
2019-05-21T11:00:22.935Z,13.80
2019-05-21T11:03:00.488Z,13.90
2019-05-21T11:05:34.933Z,14.00
2019-05-21T11:08:23.510Z,14.10
2019-05-21T11:10:38.578Z,14.10
2019-05-21T11:13:09.700Z,14.30
2019-05-21T11:15:40.146Z,14.40
2019-05-21T11:18:11.855Z,14.30
2019-05-21T11:20:42.848Z,14.20
2019-05-21T11:23:13.471Z,14.30
2019-05-21T11:25:43.961Z,14.50
2019-05-21T11:28:14.458Z,14.40
2019-05-21T11:30:44.987Z,14.30
2019-05-21T11:33:15.432Z,14.40
2019-05-21T11:35:45.858Z,14.20
2019-05-21T11:38:16.350Z,14.20
2019-05-21T11:40:51.039Z,14.30
2019-05-21T11:43:19.159Z,14.40
2019-05-21T11:45:49.625Z,14.40
2019-05-21T11:48:20.112Z,14.50
2019-05-21T11:50:50.618Z,14.50
2019-05-21T11:53:21.217Z,14.50
2019-05-21T11:55:51.777Z,14.40
2019-05-21T11:58:22.256Z,14.30
2019-05-21T12:00:53.065Z,14.30
2019-05-21T12:03:23.633Z,14.20
2019-05-21T12:05:54.223Z,14.10
2019-05-21T12:08:24.698Z,14.10
2019-05-21T12:10:55.319Z,14.10
2019-05-21T12:13:25.801Z,14.10
2019-05-21T12:15:56.364Z,13.90
2019-05-21T12:18:26.928Z,13.80
2019-05-21T12:20:57.323Z,13.90
2019-05-21T12:23:27.972Z,14.00
2019-05-21T12:25:58.774Z,14.00
2019-05-21T12:28:29.836Z,14.00
2019-05-21T12:31:00.512Z,14.10
2019-05-21T12:33:34.889Z,14.20
2019-05-21T12:36:03.342Z,14.10
2019-05-21T12:38:33.944Z,14.10
2019-05-21T12:41:04.431Z,14.10
2019-05-21T12:43:35.099Z,14.10
2019-05-21T12:46:05.609Z,14.10
2019-05-21T12:48:36.302Z,13.90
2019-05-21T12:51:06.835Z,13.80
2019-05-21T12:53:37.908Z,13.80
2019-05-21T12:56:08.340Z,13.70
2019-05-21T12:58:38.931Z,13.60
2019-05-21T13:01:09.549Z,13.60
2019-05-21T13:03:40.241Z,13.70
2019-05-21T13:06:10.721Z,13.70
2019-05-21T13:08:41.264Z,13.90
2019-05-21T13:11:11.853Z,13.80
2019-05-21T13:13:43.195Z,13.90
2019-05-21T13:16:14.050Z,13.90
2019-05-21T13:18:44.598Z,13.90
2019-05-21T13:21:15.080Z,13.80
2019-05-21T13:23:45.614Z,13.90
2019-05-21T13:26:16.057Z,14.00
2019-05-21T13:28:46.611Z,13.90
2019-05-21T13:31:17.215Z,13.90
2019-05-21T13:33:47.825Z,13.90
2019-05-21T13:36:18.262Z,14.00
2019-05-21T13:38:48.694Z,14.00
2019-05-21T13:41:20.090Z,13.90
2019-05-21T13:43:50.778Z,13.70
2019-05-21T13:46:21.589Z,13.70
2019-05-21T13:48:52.001Z,13.70
2019-05-21T13:51:22.555Z,13.70
2019-05-21T13:53:53.150Z,13.80
2019-05-21T13:56:32.402Z,13.80
2019-05-21T13:59:34.938Z,13.80
2019-05-21T14:02:05.986Z,13.70
2019-05-21T14:04:37.080Z,13.90
2019-05-21T14:07:28.127Z,13.80
2019-05-21T14:10:13.896Z,13.50
2019-05-21T14:12:41.015Z,13.40
2019-05-21T14:15:13.541Z,13.40
2019-05-21T14:17:51.954Z,13.40
2019-05-21T14:20:26.619Z,13.40
2019-05-21T14:23:00.712Z,13.50
2019-05-21T14:25:32.276Z,13.50
2019-05-21T14:28:08.281Z,13.60
2019-05-21T14:30:39.602Z,13.60
2019-05-21T14:33:10.088Z,13.70
2019-05-21T14:35:42.977Z,13.70
2019-05-21T14:38:13.661Z,13.70
2019-05-21T14:40:44.247Z,13.70
2019-05-21T14:43:15.839Z,13.70
2019-05-21T14:45:46.228Z,13.60
2019-05-21T14:48:16.811Z,13.60
2019-05-21T14:50:47.413Z,13.70
2019-05-21T14:53:19.146Z,13.70
2019-05-21T14:56:00.381Z,13.70
2019-05-21T14:58:31.171Z,13.60
2019-05-21T15:01:01.620Z,13.50
2019-05-21T15:03:32.183Z,13.40
2019-05-21T15:06:02.625Z,13.50
2019-05-21T15:08:33.392Z,13.50
2019-05-21T15:11:05.395Z,13.50
2019-05-21T15:13:36.165Z,13.60
2019-05-21T15:16:06.857Z,13.60
2019-05-21T15:18:37.476Z,13.70
2019-05-21T15:21:19.317Z,13.60
2019-05-21T15:23:49.969Z,13.60
2019-05-21T15:26:20.480Z,13.50
2019-05-21T15:28:51.184Z,13.50
2019-05-21T15:31:21.932Z,13.50
2019-05-21T15:33:52.716Z,13.40
2019-05-21T15:36:23.285Z,13.40
2019-05-21T15:38:53.842Z,13.40
2019-05-21T15:41:24.956Z,13.40
2019-05-21T15:43:55.555Z,13.20
2019-05-21T15:46:47.222Z,13.20
2019-05-21T15:49:04.316Z,13.10
2019-05-21T15:51:37.668Z,13.20
2019-05-21T15:54:08.332Z,13.10
2019-05-21T15:56:38.955Z,13.00
2019-05-21T15:59:09.496Z,12.90
2019-05-21T16:01:40.874Z,13.00
2019-05-21T16:04:15.867Z,12.90
2019-05-21T16:06:43.939Z,12.90
2019-05-21T16:09:18.604Z,13.00
2019-05-21T16:11:49.107Z,12.90
2019-05-21T16:14:19.583Z,12.80
2019-05-21T16:16:50.192Z,12.90
2019-05-21T16:19:21.156Z,12.90
2019-05-21T16:21:52.335Z,12.90
2019-05-21T16:24:22.827Z,12.90
2019-05-21T16:26:53.372Z,12.80
2019-05-21T16:29:23.905Z,12.90
2019-05-21T16:31:54.532Z,12.90
2019-05-21T16:34:25.031Z,12.90
2019-05-21T16:36:55.656Z,12.80
2019-05-21T16:39:26.192Z,12.80
2019-05-21T16:41:56.679Z,12.80
2019-05-21T16:44:27.174Z,12.80
2019-05-21T16:46:57.660Z,12.80
2019-05-21T16:49:28.133Z,12.70
2019-05-21T16:51:58.632Z,12.70
2019-05-21T16:54:29.230Z,12.70
2019-05-21T16:57:00.056Z,12.90
2019-05-21T16:59:30.544Z,12.80
2019-05-21T17:02:01.159Z,12.70
2019-05-21T17:04:31.712Z,12.70
2019-05-21T17:07:02.102Z,12.60
2019-05-21T17:09:32.676Z,12.60
2019-05-21T17:12:03.362Z,12.60
2019-05-21T17:14:33.878Z,12.50
2019-05-21T17:17:04.583Z,12.50
2019-05-21T17:19:35.175Z,12.50
2019-05-21T17:22:05.710Z,12.50
2019-05-21T17:24:36.337Z,12.50
2019-05-21T17:27:06.849Z,12.40
2019-05-21T17:29:37.293Z,12.40
2019-05-21T17:32:07.810Z,12.40
2019-05-21T17:34:38.679Z,12.40
2019-05-21T17:37:09.184Z,12.40
2019-05-21T17:39:40.003Z,12.60
2019-05-21T17:42:15.603Z,12.60
2019-05-21T17:44:42.907Z,12.50
2019-05-21T17:47:14.379Z,12.50
2019-05-21T17:49:44.924Z,12.60
2019-05-21T17:52:15.655Z,12.50
2019-05-21T17:54:56.216Z,12.50
2019-05-21T17:57:19.208Z,12.40
2019-05-21T17:59:49.986Z,12.40
2019-05-21T18:02:21.205Z,12.40
2019-05-21T18:04:51.896Z,12.40
2019-05-21T18:07:23.432Z,12.30
2019-05-21T18:09:54.067Z,12.30
2019-05-21T18:12:32.050Z,12.40
2019-05-21T18:14:59.054Z,12.40
2019-05-21T18:17:30.908Z,12.50
2019-05-21T18:20:03.209Z,12.40
2019-05-21T18:22:34.246Z,12.40
2019-05-21T18:25:06.134Z,12.40
2019-05-21T18:27:36.643Z,12.40
2019-05-21T18:30:08.835Z,12.30
2019-05-21T18:32:40.306Z,12.40
2019-05-21T18:35:11.178Z,12.30
2019-05-21T18:37:41.644Z,12.30
2019-05-21T18:40:12.426Z,12.20
2019-05-21T18:42:42.915Z,12.20
2019-05-21T18:45:13.948Z,12.20
2019-05-21T18:47:54.162Z,12.10
2019-05-21T18:50:35.518Z,12.20
2019-05-21T18:52:57.007Z,12.30
2019-05-21T18:55:27.564Z,12.30
2019-05-21T18:57:58.016Z,12.30
2019-05-21T19:00:28.667Z,12.30
2019-05-21T19:02:59.225Z,12.30
2019-05-21T19:05:29.787Z,12.30
2019-05-21T19:08:00.292Z,12.30
2019-05-21T19:10:30.856Z,12.20
2019-05-21T19:13:01.770Z,12.20
2019-05-21T19:15:32.233Z,12.20
2019-05-21T19:18:02.714Z,12.20
2019-05-21T19:20:33.236Z,12.20
2019-05-21T19:23:03.784Z,12.20
2019-05-21T19:25:34.358Z,12.20
2019-05-21T19:28:05.000Z,12.20
2019-05-21T19:30:35.662Z,12.20
2019-05-21T19:33:06.163Z,12.20
2019-05-21T19:35:36.715Z,12.20
2019-05-21T19:38:07.240Z,12.30
2019-05-21T19:40:38.935Z,12.20
2019-05-21T19:43:09.504Z,12.20
2019-05-21T19:45:40.162Z,12.20
2019-05-21T19:48:10.794Z,12.20
2019-05-21T19:50:41.751Z,12.20
2019-05-21T19:53:12.211Z,12.20
2019-05-21T19:55:42.667Z,12.20
2019-05-21T19:58:13.191Z,12.20
2019-05-21T20:00:50.312Z,12.20
2019-05-21T20:03:21.695Z,12.20
2019-05-21T20:05:52.344Z,12.20
2019-05-21T20:08:22.922Z,12.10
2019-05-21T20:10:53.415Z,12.10
2019-05-21T20:13:32.134Z,12.10
2019-05-21T20:15:56.816Z,12.10
2019-05-21T20:18:27.549Z,12.10
2019-05-21T20:20:59.926Z,12.10
2019-05-21T20:23:30.356Z,12.00
2019-05-21T20:26:02.213Z,12.10
2019-05-21T20:28:32.732Z,12.00
2019-05-21T20:31:03.603Z,11.90
2019-05-21T20:33:35.094Z,11.90
2019-05-21T20:36:06.538Z,11.90
2019-05-21T20:38:45.309Z,12.00
2019-05-21T20:41:19.143Z,12.10
2019-05-21T20:43:58.608Z,12.00
2019-05-21T20:46:23.506Z,12.10
2019-05-21T20:48:55.251Z,12.10
2019-05-21T20:51:26.055Z,12.00
2019-05-21T20:53:56.866Z,12.00
2019-05-21T20:56:28.123Z,12.00
2019-05-21T20:58:58.573Z,12.00
2019-05-21T21:01:29.971Z,12.00
2019-05-21T21:04:00.607Z,12.00
2019-05-21T21:06:35.684Z,12.00
2019-05-21T21:09:10.405Z,12.00
2019-05-21T21:11:42.636Z,12.00
2019-05-21T21:14:18.380Z,12.00
2019-05-21T21:16:48.859Z,11.90
2019-05-21T21:19:20.285Z,11.90
2019-05-21T21:21:50.975Z,12.00
2019-05-21T21:24:21.528Z,12.10
2019-05-21T21:26:53.458Z,12.10
2019-05-21T21:29:25.572Z,12.00
2019-05-21T21:31:56.245Z,12.00
2019-05-21T21:34:27.335Z,12.00
2019-05-21T21:36:57.894Z,12.10
2019-05-21T21:39:28.627Z,12.10
2019-05-21T21:41:59.736Z,12.10
2019-05-21T21:44:33.981Z,12.00
2019-05-21T21:47:03.326Z,12.10
2019-05-21T21:49:35.192Z,12.10
2019-05-21T21:52:10.070Z,12.00
2019-05-21T21:54:41.474Z,12.10
2019-05-21T21:57:13.375Z,12.00
2019-05-21T21:59:43.956Z,12.00
2019-05-21T22:02:27.691Z,12.00
2019-05-21T22:04:59.334Z,12.00
2019-05-21T22:07:30.908Z,12.00
2019-05-21T22:10:01.742Z,12.10
2019-05-21T22:12:32.727Z,12.00
2019-05-21T22:15:03.677Z,12.00
2019-05-21T22:17:34.425Z,12.00
2019-05-21T22:20:06.216Z,12.00
2019-05-21T22:22:37.107Z,12.00
2019-05-21T22:25:08.164Z,12.00
2019-05-21T22:27:38.890Z,12.00
2019-05-21T22:30:10.857Z,11.90
2019-05-21T22:32:41.352Z,11.90
2019-05-21T22:35:12.101Z,11.90
2019-05-21T22:37:42.794Z,11.90
2019-05-21T22:40:14.081Z,11.90
2019-05-21T22:42:44.700Z,11.90
2019-05-21T22:45:16.559Z,11.90
2019-05-21T22:47:46.993Z,11.90
2019-05-21T22:50:18.246Z,12.00
2019-05-21T22:52:48.883Z,11.90
2019-05-21T22:55:19.401Z,11.80
2019-05-21T22:57:49.878Z,11.90
2019-05-21T23:00:21.609Z,11.90
2019-05-21T23:02:52.901Z,12.00
2019-05-21T23:05:23.471Z,11.90
2019-05-21T23:07:53.971Z,11.90
2019-05-21T23:10:24.605Z,11.90
2019-05-21T23:12:55.210Z,11.90
2019-05-21T23:15:25.912Z,11.80
2019-05-21T23:17:56.308Z,11.70
2019-05-21T23:20:30.295Z,11.70
2019-05-21T23:23:01.159Z,11.70
2019-05-21T23:25:32.181Z,11.70
2019-05-21T23:28:03.632Z,11.80
2019-05-21T23:30:34.512Z,11.80
2019-05-21T23:33:06.442Z,11.80
2019-05-21T23:35:38.069Z,11.80
2019-05-21T23:38:09.726Z,11.70
2019-05-21T23:40:41.652Z,11.70
2019-05-21T23:43:13.051Z,11.70
2019-05-21T23:45:43.571Z,11.70
2019-05-21T23:48:15.803Z,11.70
2019-05-21T23:50:46.629Z,11.70
2019-05-21T23:53:18.020Z,11.70
2019-05-21T23:55:48.580Z,11.60
2019-05-21T23:58:19.018Z,11.60
